Time;durP1;ratioP1;P1;durP2;ratioP2;P2;SDS_P1;SDS_P2;PMS_P1;PMS_P2;Temp;Humidity;BMP_temperature;BMP_pressure;BME280_temperature;BME280_humidity;BME280_pressure;Samples;Min_cycle;Max_cycle;Signal;HPM_P1;HPM_P2
2022/12/13 00:00:47;;;;;;;;;;;76.90;2227.20;;;;;;5017157;28;20029;-83
2022/12/13 00:03:12;;;;;;;34.13;16.08;;;76.90;2227.20;;;;;;5013318;28;19985;-82
2022/12/13 00:05:42;;;;;;;;;;;76.90;2227.20;;;;;;5031466;28;20049;-83
2022/12/13 00:08:08;;;;;;;33.15;14.20;;;76.80;2227.20;;;;;;5036985;28;19905;-82
2022/12/13 00:10:33;;;;;;;;;;;52.10;2227.20;;;;;;5035959;28;20097;-80
2022/12/13 00:12:59;;;;;;;33.97;16.98;;;52.10;2227.20;;;;;;5020233;28;19957;-83
2022/12/13 00:15:25;;;;;;;;;;;52.00;2227.20;;;;;;5017554;28;20017;-83
2022/12/13 00:17:50;;;;;;;29.85;15.73;;;52.10;2227.20;;;;;;5019215;28;19905;-80
2022/12/13 00:20:16;;;;;;;;;;;52.00;2227.20;;;;;;5015176;28;20056;-79
2022/12/13 00:22:42;;;;;;;30.58;15.10;;;52.00;2227.20;;;;;;5012668;28;19913;-80
2022/12/13 00:25:07;;;;;;;;;;;52.00;2227.20;;;;;;5019149;28;20033;-79
2022/12/13 00:27:33;;;;;;;35.65;17.42;;;52.10;2227.20;;;;;;5019077;28;19936;-80
2022/12/13 00:29:58;;;;;;;;;;;76.80;2227.20;;;;;;5014363;28;20034;-83
2022/12/13 00:32:24;;;;;;;33.75;16.48;;;76.80;2227.20;;;;;;5014645;28;19917;-83
2022/12/13 00:34:50;;;;;;;;;;;76.80;2227.20;;;;;;5014343;28;20033;-79
2022/12/13 00:37:15;;;;;;;36.05;17.73;;;76.90;2227.20;;;;;;5014526;28;19920;-82
2022/12/13 00:39:41;;;;;;;;;;;76.80;2227.20;;;;;;5014173;28;20500;-80
2022/12/13 00:42:07;;;;;;;31.63;15.80;;;76.80;2227.20;;;;;;5018774;28;19905;-83
2022/12/13 00:44:32;;;;;;;;;;;52.10;2227.20;;;;;;5019237;28;20026;-80
2022/12/13 00:46:58;;;;;;;26.33;13.55;;;52.10;2227.20;;;;;;5019775;28;19905;-80
2022/12/13 00:49:24;;;;;;;;;;;52.00;2227.20;;;;;;5017520;28;20025;-79
2022/12/13 00:51:49;;;;;;;25.75;12.93;;;52.10;2227.20;;;;;;5013485;28;20261;-82
2022/12/13 00:54:15;;;;;;;;;;;52.00;2227.20;;;;;;5005334;28;20046;-82
2022/12/13 00:56:41;;;;;;;27.65;13.18;;;52.10;2227.20;;;;;;5000097;28;19915;-80
2022/12/13 00:59:07;;;;;;;;;;;52.10;2227.20;;;;;;5008573;28;20026;-83
2022/12/13 01:01:35;;;;;;;28.65;13.73;;;52.10;2227.20;;;;;;5008701;28;19905;-80
2022/12/13 01:04:02;;;;;;;42.50;19.80;;;76.80;2227.20;;;;;;5009812;28;20389;-80
2022/12/13 01:06:35;;;;;;;59.00;29.83;;;76.80;2227.20;;;;;;5008960;28;20033;-83
2022/12/13 01:09:01;;;;;;;83.57;36.88;;;76.80;2227.20;;;;;;5007512;28;20033;-82
2022/12/13 01:11:28;;;;;;;76.25;31.38;;;77.00;2227.20;;;;;;5023227;28;20030;-82
2022/12/13 01:13:53;;;;;;;50.50;23.80;;;76.90;2227.20;;;;;;5011632;28;20024;-81
2022/12/13 01:16:19;;;;;;;;;;;76.90;2227.20;;;;;;5005678;28;20382;-80
2022/12/13 01:18:45;;;;;;;41.28;20.10;;;76.90;2227.20;;;;;;5005402;28;19905;-80
2022/12/13 01:21:11;;;;;;;;;;;76.90;2227.20;;;;;;5006380;28;20025;-83
2022/12/13 01:23:37;;;;;;;31.60;17.05;;;76.90;2227.20;;;;;;5007021;28;19906;-80
2022/12/13 01:26:05;;;;;;;34.80;18.85;;;76.90;2227.20;;;;;;5009747;28;20029;-80
2022/12/13 01:28:32;;;;;;;43.60;21.02;;;76.90;2227.20;;;;;;5004953;28;20117;-82
2022/12/13 01:31:05;;;;;;;37.35;18.58;;;76.90;2227.20;;;;;;5006421;28;20124;-83
2022/12/13 01:33:32;;;;;;;33.70;17.33;;;77.00;2227.20;;;;;;5015349;28;20079;-80
2022/12/13 01:36:02;;;;;;;28.75;15.68;;;76.90;2227.20;;;;;;5007856;28;20029;-80
2022/12/13 01:38:28;;;;;;;32.83;17.58;;;76.90;2227.20;;;;;;5011326;28;20071;-83
2022/12/13 01:40:57;;;;;;;;;;;76.80;2227.20;;;;;;5008388;28;20037;-81
2022/12/13 01:43:25;;;;;;;30.90;17.98;;;52.10;2227.20;;;;;;5007397;28;19913;-80
2022/12/13 01:45:51;;;;;;;27.90;15.80;;;52.10;2227.20;;;;;;5009082;28;20049;-83
2022/12/13 01:48:19;;;;;;;;;;;76.90;2227.20;;;;;;5006973;28;20394;-83
2022/12/13 01:50:50;;;;;;;37.40;16.73;;;51.90;2227.20;;;;;;5018383;28;19936;-79
2022/12/13 01:53:22;;;;;;;32.88;17.00;;;52.00;2227.20;;;;;;5005505;28;20026;-79
2022/12/13 01:55:53;;;;;;;37.72;17.17;;;52.10;2227.20;;;;;;5010955;28;20037;-79
2022/12/13 01:58:20;;;;;;;31.52;17.05;;;52.00;2227.20;;;;;;5005757;28;20040;-83
2022/12/13 02:00:47;;;;;;;37.78;17.02;;;52.00;2227.20;;;;;;5005245;28;20474;-79
2022/12/13 02:03:14;;;;;;;32.22;16.50;;;52.00;2227.20;;;;;;5002161;28;20044;-79
2022/12/13 02:06:05;;;;;;;34.03;17.63;;;51.80;2227.20;;;;;;5006552;28;20044;-79
2022/12/13 02:08:31;;;;;;;33.10;16.10;;;51.70;2227.20;;;;;;5000251;28;20030;-79
2022/12/13 02:10:58;;;;;;;30.50;16.33;;;51.60;2227.20;;;;;;5003287;28;20052;-79
2022/12/13 02:13:24;;;;;;;35.15;16.70;;;51.50;2227.20;;;;;;5027626;28;20075;-79
2022/12/13 02:15:49;;;;;;;;;;;51.50;2227.20;;;;;;5021295;28;20108;-79
2022/12/13 02:18:30;;;;;;;42.05;18.48;;;51.60;2227.20;;;;;;5028266;28;20055;-79
2022/12/13 02:21:19;;;;;;;27.67;15.25;;;51.70;2227.20;;;;;;5015864;28;20113;-79
2022/12/13 02:24:37;;;;;;;31.17;15.32;;;51.70;2227.20;;;;;;5001060;28;20025;-79
2022/12/13 02:27:38;;;;;;;23.52;12.60;;;51.80;2227.20;;;;;;5021144;28;20486;-79
2022/12/13 02:30:25;;;;;;;39.15;17.77;;;51.80;2227.20;;;;;;4952483;28;21534;-83
2022/12/13 02:33:14;;;;;;;38.95;17.27;;;51.90;2227.20;;;;;;4957420;28;20504;-82
2022/12/13 02:36:07;;;;;;;31.52;16.65;;;51.90;2227.20;;;;;;4936211;29;20035;-79
2022/12/13 02:38:44;;;;;;;37.75;18.33;;;51.90;2227.20;;;;;;4946915;28;20027;-79
2022/12/13 02:41:18;;;;;;;34.45;17.88;;;51.90;2227.20;;;;;;4949751;28;20528;-79
2022/12/13 02:43:54;;;;;;;28.70;15.35;;;51.80;2227.20;;;;;;4936320;29;20035;-80
2022/12/13 02:46:24;;;;;;;32.92;18.30;;;51.90;2227.20;;;;;;4935229;29;20032;-79
2022/12/13 02:48:53;;;;;;;32.75;17.75;;;51.90;2227.20;;;;;;4936244;29;20027;-79
2022/12/13 02:51:20;;;;;;;35.10;16.73;;;51.90;2227.20;;;;;;4939651;29;20047;-79
2022/12/13 02:53:46;;;;;;;34.33;18.20;;;52.00;2227.20;;;;;;4950772;28;20516;-78
2022/12/13 02:56:12;;;;;;;;;;;52.00;2227.20;;;;;;4940495;28;20114;-79
2022/12/13 02:58:44;;;;;;;32.13;16.63;;;52.00;2227.20;;;;;;4940106;29;19918;-78
2022/12/13 03:01:22;;;;;;;32.60;16.77;;;52.00;2227.20;;;;;;4956083;29;20027;-83
2022/12/13 03:04:07;;;;;;;41.70;19.90;;;52.00;2227.20;;;;;;4939424;29;20038;-79
2022/12/13 03:06:43;;;;;;;45.75;19.88;;;52.00;2227.20;;;;;;5000846;28;20025;-78
2022/12/13 03:09:32;;;;;;;56.20;23.25;;;52.00;2227.20;;;;;;5009538;28;20026;-83
2022/12/13 03:15:23;;;;;;;48.78;22.10;;;51.90;2227.20;;;;;;5032056;28;20040;-83
2022/12/13 03:17:58;;;;;;;45.28;21.92;;;52.00;2227.20;;;;;;5003185;28;20079;-79
2022/12/13 03:20:26;;;;;;;45.65;21.17;;;51.90;2227.20;;;;;;5006908;28;20040;-80
2022/12/13 03:22:53;;;;;;;49.00;24.73;;;52.00;2227.20;;;;;;5006714;28;20022;-78
2022/12/13 03:25:20;;;;;;;59.20;27.05;;;52.00;2227.20;;;;;;5007672;28;20052;-78
2022/12/13 03:27:46;;;;;;;50.88;24.17;;;51.90;2227.20;;;;;;5004227;28;20389;-79
2022/12/13 03:30:11;;;;;;;;;;;52.00;2227.20;;;;;;5021898;28;20104;-79
2022/12/13 03:32:37;;;;;;;41.17;18.77;;;52.00;2227.20;;;;;;5006424;28;19909;-78
2022/12/13 03:35:03;;;;;;;;;;;51.90;2227.20;;;;;;5011289;28;20033;-84
2022/12/13 03:37:29;;;;;;;34.30;17.20;;;51.90;2227.20;;;;;;5004308;28;20160;-78
2022/12/13 03:39:55;;;;;;;;;;;51.90;2227.20;;;;;;5017747;28;20032;-83
2022/12/13 03:42:21;;;;;;;37.33;18.02;;;51.90;2227.20;;;;;;5018260;28;19905;-78
2022/12/13 03:44:47;;;;;;;33.55;16.77;;;51.80;2227.20;;;;;;5026227;28;20097;-83
2022/12/13 03:47:13;;;;;;;;;;;51.80;2227.20;;;;;;5023728;28;20033;-79
2022/12/13 03:49:38;;;;;;;30.23;16.95;;;51.80;2227.20;;;;;;5019450;28;19975;-79
2022/12/13 03:52:04;;;;;;;;;;;51.80;2227.20;;;;;;5009422;28;20044;-79
2022/12/13 03:54:30;;;;;;;34.17;17.77;;;51.80;2227.20;;;;;;5005546;28;19991;-79
2022/12/13 03:56:56;;;;;;;;;;;51.80;2227.20;;;;;;5020765;28;20049;-80
2022/12/13 03:59:22;;;;;;;35.85;17.02;;;51.80;2227.20;;;;;;5023787;28;19999;-79
2022/12/13 04:01:48;;;;;;;;;;;51.80;2227.20;;;;;;5013807;28;20518;-79
2022/12/13 04:04:13;;;;;;;33.47;17.17;;;51.80;2227.20;;;;;;5025577;28;19964;-78
2022/12/13 04:06:39;;;;;;;;;;;51.80;2227.20;;;;;;5013892;28;20125;-84
2022/12/13 04:09:04;;;;;;;38.92;20.58;;;51.80;2227.20;;;;;;5025013;28;20352;-79
2022/12/13 04:14:14;;;;;;;41.13;19.77;;;51.80;2227.20;;;;;;5023912;28;19917;-78
2022/12/13 04:16:40;;;;;;;;;;;51.70;2227.20;;;;;;5031737;28;20026;-79
2022/12/13 04:19:06;;;;;;;37.25;17.20;;;51.80;2227.20;;;;;;5009763;28;19905;-78
2022/12/13 04:21:32;;;;;;;35.65;17.27;;;51.70;2227.20;;;;;;5023287;28;20080;-78
2022/12/13 04:23:57;;;;;;;;;;;51.70;2227.20;;;;;;5029212;28;20026;-78
2022/12/13 04:26:23;;;;;;;38.90;18.88;;;51.70;2227.20;;;;;;5028367;28;19905;-84
2022/12/13 04:28:48;;;;;;;;;;;51.70;2227.20;;;;;;5025479;28;20024;-84
2022/12/13 04:31:14;;;;;;;38.58;19.05;;;51.70;2227.20;;;;;;5010934;28;19917;-80
2022/12/13 04:33:40;;;;;;;;;;;51.70;2227.20;;;;;;5028067;28;20080;-80
2022/12/13 04:36:06;;;;;;;37.53;17.33;;;51.60;2227.20;;;;;;5005305;28;19940;-79
2022/12/13 04:38:31;;;;;;;38.15;18.35;;;51.50;2227.20;;;;;;5029781;28;20076;-78
2022/12/13 04:41:13;;;;;;;;;;;51.50;2227.20;;;;;;5025955;28;20486;-84
2022/12/13 04:43:38;;;;;;;42.35;20.80;;;51.50;2227.20;;;;;;5028029;28;19905;-78
2022/12/13 04:46:04;;;;;;;;;;;51.40;2227.20;;;;;;5011942;28;20068;-84
2022/12/13 04:48:31;;;;;;;37.03;18.48;;;51.30;2227.20;;;;;;5008993;28;19906;-78
2022/12/13 04:50:58;;;;;;;53.78;26.60;;;51.30;2227.20;;;;;;5019732;28;20034;-79
2022/12/13 04:53:23;;;;;;;48.17;23.48;;;51.30;2227.20;;;;;;5009405;28;20014;-79
2022/12/13 04:55:49;;;;;;;;;;;51.20;2227.20;;;;;;5023933;28;20482;-78
2022/12/13 04:58:14;;;;;;;34.03;16.58;;;51.20;2227.20;;;;;;5008455;28;19995;-78
2022/12/13 05:00:40;;;;;;;;;;;26.30;2201.60;;;;;;5009255;28;20091;-79
2022/12/13 05:03:06;;;;;;;34.05;15.90;;;26.20;2201.60;;;;;;5023109;28;19917;-84
2022/12/13 05:05:31;;;;;;;;;;;26.20;2201.60;;;;;;5011853;28;20026;-79
2022/12/13 05:07:57;;;;;;;31.83;17.35;;;26.20;2201.60;;;;;;5027699;28;19959;-80
2022/12/13 05:10:23;;;;;;;;;;;26.30;2201.60;;;;;;5004644;28;20052;-79
2022/12/13 05:12:48;;;;;;;35.78;17.90;;;26.40;2201.60;;;;;;5016002;28;20381;-79
2022/12/13 05:15:14;;;;;;;;;;;26.40;2201.60;;;;;;5016301;28;20069;-78
2022/12/13 05:17:40;;;;;;;34.17;15.90;;;26.50;2201.60;;;;;;5009348;28;19905;-78
2022/12/13 05:20:05;;;;;;;;;;;26.40;2201.60;;;;;;5020430;28;20014;-78
2022/12/13 05:22:31;;;;;;;33.60;16.40;;;26.30;2201.60;;;;;;5024132;28;19905;-80
2022/12/13 05:24:57;;;;;;;;;;;26.40;2201.60;;;;;;5022703;28;20028;-83
2022/12/13 05:27:22;;;;;;;34.58;17.25;;;26.30;2201.60;;;;;;5012469;28;20346;-78
2022/12/13 05:29:48;;;;;;;;;;;26.40;2201.60;;;;;;5025334;28;20068;-79
2022/12/13 05:32:14;;;;;;;35.78;16.80;;;26.40;2201.60;;;;;;5010352;28;19921;-79
2022/12/13 05:34:39;;;;;;;;;;;26.40;2201.60;;;;;;5013690;28;20822;-79
2022/12/13 05:37:05;;;;;;;33.72;16.92;;;26.50;2201.60;;;;;;5016552;28;20342;-82
2022/12/13 05:39:30;;;;;;;;;;;26.40;2201.60;;;;;;5009145;28;20025;-81
2022/12/13 05:41:58;;;;;;;38.92;18.02;;;26.40;2201.60;;;;;;5011957;28;19998;-80
2022/12/13 05:44:24;;;;;;;39.53;17.98;;;26.40;2201.60;;;;;;5010103;28;20096;-79
2022/12/13 05:46:49;;;;;;;;;;;26.30;2201.60;;;;;;5021601;28;20079;-81
2022/12/13 05:49:15;;;;;;;38.70;18.35;;;26.50;2201.60;;;;;;5014719;28;20008;-80
2022/12/13 05:51:40;;;;;;;;;;;26.30;2201.60;;;;;;5010877;28;20037;-78
2022/12/13 05:54:06;;;;;;;54.65;23.50;;;26.20;2201.60;;;;;;5006559;28;20377;-79
2022/12/13 05:56:32;;;;;;;;;;;26.00;2201.60;;;;;;5010562;28;20051;-79
2022/12/13 05:58:57;;;;;;;48.72;21.98;;;26.00;2201.60;;;;;;5010240;28;19905;-83
2022/12/13 06:01:23;;;;;;;;;;;25.90;2201.60;;;;;;5015185;28;20549;-80
2022/12/13 06:03:49;;;;;;;52.42;25.50;;;26.00;2201.60;;;;;;5020936;28;19959;-86
2022/12/13 06:06:16;;;;;;;;;;;25.90;2201.60;;;;;;5005591;28;20046;-80
2022/12/13 06:08:42;;;;;;;54.42;24.80;;;26.00;2201.60;;;;;;5009684;28;19939;-77
2022/12/13 06:11:08;;;;;;;;;;;26.00;2201.60;;;;;;5027892;28;20108;-80
2022/12/13 06:13:34;;;;;;;49.05;23.08;;;26.00;2201.60;;;;;;5028861;28;19913;-80
2022/12/13 06:16:00;;;;;;;;;;;25.70;2201.60;;;;;;5009869;28;20029;-85
2022/12/13 06:18:26;;;;;;;63.33;28.67;;;25.80;2201.60;;;;;;5009033;28;20281;-80
2022/12/13 06:20:59;;;;;;;;;;;25.60;2201.60;;;;;;5009933;28;20038;-79
2022/12/13 06:23:25;;;;;;;75.40;34.80;;;25.60;2201.60;;;;;;5026099;28;19954;-79
2022/12/13 06:25:51;;;;;;;75.05;34.42;;;25.60;2201.60;;;;;;5003150;28;20026;-78
2022/12/13 06:28:17;;;;;;;;;;;25.70;2201.60;;;;;;5018808;28;20583;-78
2022/12/13 06:30:42;;;;;;;69.60;31.45;;;25.70;2201.60;;;;;;5012735;28;19915;-76
2022/12/13 06:33:09;;;;;;;;;;;25.80;2201.60;;;;;;5032812;28;20053;-76
2022/12/13 06:35:35;;;;;;;77.72;35.33;;;25.80;2201.60;;;;;;5012217;28;19956;-78
2022/12/13 06:38:00;;;;;;;;;;;25.80;2201.60;;;;;;4995789;28;20060;-78
2022/12/13 06:40:26;;;;;;;92.75;45.20;;;25.80;2201.60;;;;;;5012518;28;19909;-76
2022/12/13 06:42:52;;;;;;;;;;;25.80;2201.60;;;;;;5021911;28;20470;-83
2022/12/13 06:45:18;;;;;;;86.75;37.38;;;25.80;2201.60;;;;;;5006359;28;19905;-80
2022/12/13 06:47:43;;;;;;;;;;;25.80;2201.60;;;;;;5012125;28;20029;-79
2022/12/13 06:50:09;;;;;;;100.40;47.55;;;25.70;2201.60;;;;;;5011262;28;19905;-78
2022/12/13 06:52:35;;;;;;;;;;;0.90;2201.60;;;;;;5009664;28;20098;-78
2022/12/13 06:55:01;;;;;;;48.42;24.00;;;0.60;2201.60;;;;;;5009129;28;19940;-79
2022/12/13 06:57:27;;;;;;;43.78;21.70;;;0.50;2201.60;;;;;;5003679;28;20025;-78
2022/12/13 06:59:52;;;;;;;;;;;0.20;2201.60;;;;;;5007695;28;20022;-78
2022/12/13 07:02:18;;;;;;;67.93;32.28;;;0.20;2201.60;;;;;;5021560;28;19914;-79
2022/12/13 07:04:44;;;;;;;;;;;0.30;2201.60;;;;;;5011326;28;20018;-80
2022/12/13 07:07:09;;;;;;;48.03;23.73;;;0.50;2201.60;;;;;;5023721;28;19905;-78
2022/12/13 07:09:35;;;;;;;;;;;0.70;2201.60;;;;;;5009376;28;20025;-78
2022/12/13 07:12:01;;;;;;;55.00;27.42;;;0.80;2201.60;;;;;;5012823;28;19953;-79
2022/12/13 07:14:27;;;;;;;;;;;0.90;2201.60;;;;;;5008173;28;20021;-79
2022/12/13 07:16:52;;;;;;;70.10;32.33;;;25.70;2201.60;;;;;;5031486;28;19913;-78
2022/12/13 07:19:18;;;;;;;;;;;25.60;2201.60;;;;;;5014918;28;20021;-79
2022/12/13 07:21:44;;;;;;;63.47;30.80;;;25.70;2201.60;;;;;;5029820;28;19920;-78
2022/12/13 07:24:09;;;;;;;;;;;26.00;2201.60;;;;;;5010760;28;20053;-81
2022/12/13 07:26:35;;;;;;;87.78;38.88;;;26.20;2201.60;;;;;;5002553;28;19905;-78
2022/12/13 07:29:02;;;;;;;;;;;26.30;2201.60;;;;;;5000586;28;20029;-79
2022/12/13 07:31:27;;;;;;;46.70;22.40;;;26.40;2201.60;;;;;;5007635;28;20008;-78
2022/12/13 07:33:53;;;;;;;;;;;26.00;2201.60;;;;;;5006265;28;20110;-79
2022/12/13 07:36:20;;;;;;;54.17;26.75;;;26.00;2201.60;;;;;;5033345;28;19909;-78
2022/12/13 07:38:54;;;;;;;56.88;27.60;;;26.20;2201.60;;;;;;5016509;28;20425;-79
2022/12/13 07:41:20;;;;;;;79.68;36.45;;;26.40;2201.60;;;;;;5012009;28;20032;-80
2022/12/13 07:43:46;;;;;;;63.67;32.53;;;26.50;2201.60;;;;;;5029578;28;20022;-80
2022/12/13 07:46:12;;;;;;;;;;;51.20;2227.20;;;;;;5010679;28;20381;-78
2022/12/13 07:48:37;;;;;;;64.72;29.83;;;51.20;2227.20;;;;;;5017644;28;19905;-79
2022/12/13 07:51:05;;;;;;;;;;;51.40;2227.20;;;;;;5017993;28;20041;-79
2022/12/13 07:53:32;;;;;;;71.43;33.28;;;51.50;2227.20;;;;;;5015717;28;20046;-79
2022/12/13 07:56:02;;;;;;;70.65;33.75;;;51.50;2227.20;;;;;;5006686;28;20021;-79
2022/12/13 07:58:32;;;;;;;67.90;35.72;;;51.40;2227.20;;;;;;5017608;28;20025;-80
2022/12/13 08:01:06;;;;;;;82.35;40.95;;;51.50;2227.20;;;;;;5017767;28;20025;-80
2022/12/13 08:03:33;;;;;;;89.47;40.78;;;51.60;2227.20;;;;;;5022783;28;20021;-79
2022/12/13 08:06:07;;;;;;;93.63;46.05;;;51.80;2227.20;;;;;;5017877;28;20025;-78
2022/12/13 08:08:33;;;;;;;107.32;54.00;;;51.60;2227.20;;;;;;5017592;28;20023;-78
2022/12/13 08:11:02;;;;;;;;;;;51.60;2227.20;;;;;;5008843;28;20045;-78
2022/12/13 08:13:28;;;;;;;101.78;43.72;;;51.60;2227.20;;;;;;5014414;28;19905;-80
2022/12/13 08:16:00;;;;;;;;;;;51.80;2227.20;;;;;;5015798;28;20029;-78
2022/12/13 08:18:27;;;;;;;48.03;23.48;;;51.80;2227.20;;;;;;5014062;28;19905;-79
2022/12/13 08:21:00;;;;;;;52.50;27.02;;;51.80;2227.20;;;;;;5009184;28;20411;-77
2022/12/13 08:23:26;;;;;;;64.00;30.33;;;51.90;2227.20;;;;;;5026722;28;20044;-79
2022/12/13 08:25:53;;;;;;;68.95;32.13;;;51.70;2227.20;;;;;;5006683;28;20018;-79
2022/12/13 08:28:19;;;;;;;58.38;29.38;;;51.80;2227.20;;;;;;5000150;28;20084;-79
2022/12/13 08:30:46;;;;;;;64.68;31.45;;;51.80;2227.20;;;;;;5004790;28;20040;-78
2022/12/13 08:33:11;;;;;;;59.78;29.98;;;51.70;2227.20;;;;;;5006416;28;20100;-78
2022/12/13 08:35:37;;;;;;;;;;;51.60;2227.20;;;;;;5011016;28;20513;-78
2022/12/13 08:38:03;;;;;;;58.15;27.33;;;51.50;2227.20;;;;;;5005894;28;19959;-78
2022/12/13 08:40:28;;;;;;;;;;;51.40;2227.20;;;;;;5016843;28;20017;-78
2022/12/13 08:42:54;;;;;;;54.13;26.80;;;51.60;2227.20;;;;;;5014018;28;20022;-78
2022/12/13 08:45:22;;;;;;;;;;;51.80;2227.20;;;;;;5004534;28;20030;-78
2022/12/13 08:47:48;;;;;;;45.20;23.38;;;51.80;2227.20;;;;;;5010111;28;20380;-78
2022/12/13 08:50:14;;;;;;;;;;;51.60;2227.20;;;;;;5014601;28;20037;-77
2022/12/13 08:52:41;;;;;;;82.55;36.28;;;51.70;2227.20;;;;;;5006868;28;19909;-79
2022/12/13 08:55:27;;;;;;;53.42;25.63;;;51.80;2227.20;;;;;;5008623;28;20049;-78
2022/12/13 08:57:53;;;;;;;49.20;23.35;;;51.80;2227.20;;;;;;4975999;28;20022;-79
2022/12/13 09:00:18;;;;;;;;;;;51.80;2227.20;;;;;;4977029;28;20034;-78
2022/12/13 09:02:44;;;;;;;38.30;19.33;;;52.00;2227.20;;;;;;4976770;28;19921;-79
2022/12/13 09:05:11;;;;;;;;;;;52.10;2227.20;;;;;;4972798;28;20034;-78
2022/12/13 09:07:41;;;;;;;35.30;16.38;;;76.90;2227.20;;;;;;4973535;28;19910;-78
2022/12/13 09:10:09;;;;;;;34.65;18.33;;;76.90;2227.20;;;;;;4961630;28;20109;-79
2022/12/13 09:12:36;;;;;;;40.50;21.75;;;76.80;2227.20;;;;;;4975821;28;20053;-80
2022/12/13 09:15:02;;;;;;;43.10;21.27;;;76.80;2227.20;;;;;;4976024;28;20035;-79
2022/12/13 09:17:31;;;;;;;;;;;76.90;2227.20;;;;;;4977008;28;20144;-81
2022/12/13 09:19:57;;;;;;;46.40;21.00;;;77.00;2227.20;;;;;;4976289;28;19906;-80
2022/12/13 09:22:23;;;;;;;;;;;77.10;2227.20;;;;;;4959300;28;20154;-80
2022/12/13 09:24:48;;;;;;;43.22;23.27;;;77.30;2227.20;;;;;;4973499;28;19906;-87
2022/12/13 09:27:14;;;;;;;;;;;77.40;2227.20;;;;;;4976929;28;20076;-79
2022/12/13 09:29:39;;;;;;;39.88;20.35;;;77.40;2227.20;;;;;;5009690;28;19912;-80
2022/12/13 09:32:05;;;;;;;;;;;77.60;2227.20;;;;;;5016177;28;20503;-79
2022/12/13 09:34:34;;;;;;;40.20;19.80;;;102.40;2227.20;;;;;;5015702;28;19908;-79
2022/12/13 09:37:00;;;;;;;38.47;19.40;;;102.40;2227.20;;;;;;5019597;28;20029;-80
2022/12/13 09:39:25;;;;;;;;;;;102.50;2227.20;;;;;;5033858;28;20029;-80
2022/12/13 09:41:56;;;;;;;33.78;18.83;;;102.60;2227.20;;;;;;5033031;28;20400;-82
2022/12/13 09:44:26;;;;;;;32.45;17.70;;;102.40;2227.20;;;;;;5019883;28;20104;-78
2022/12/13 09:46:54;;;;;;;27.70;16.15;;;102.40;2227.20;;;;;;5033553;28;20488;-80
2022/12/13 09:49:20;;;;;;;34.05;16.67;;;102.70;2227.20;;;;;;5015938;28;20444;-82
2022/12/13 09:51:51;;;;;;;;;;;102.90;2227.20;;;;;;5032455;28;20033;-79
2022/12/13 09:54:20;;;;;;;25.90;14.40;;;103.30;2227.20;;;;;;5028453;28;19917;-78
2022/12/13 09:56:49;;;;;;;36.42;16.00;;;103.10;2227.20;;;;;;5015465;28;20095;-80
2022/12/13 09:59:17;;;;;;;31.23;16.17;;;103.30;2227.20;;;;;;5032356;28;20079;-80
2022/12/13 10:01:44;;;;;;;31.10;16.33;;;128.20;2252.80;;;;;;5015653;28;20363;-81
2022/12/13 10:04:16;;;;;;;27.05;14.90;;;128.60;2252.80;;;;;;5028324;28;20116;-78
2022/12/13 10:06:41;;;;;;;28.58;14.60;;;128.60;2252.80;;;;;;5031719;28;20025;-78
2022/12/13 10:09:10;;;;;;;;;;;128.70;2252.80;;;;;;5015611;28;20029;-80
2022/12/13 10:11:37;;;;;;;22.23;12.25;;;128.60;2252.80;;;;;;5016070;28;20381;-81
2022/12/13 10:14:12;;;;;;;25.25;13.27;;;128.70;2252.80;;;;;;5008552;28;20021;-80
2022/12/13 10:16:49;;;;;;;22.20;12.32;;;128.90;2252.80;;;;;;5027223;28;20036;-84
2022/12/13 10:19:16;;;;;;;;;;;154.00;2252.80;;;;;;5004562;28;20063;-81
2022/12/13 10:21:43;;;;;;;21.55;12.18;;;154.00;2201.60;;;;;;5015328;28;19944;-78
2022/12/13 10:24:12;;;;;;;20.88;11.23;;;154.10;2124.80;;;;;;5033504;28;20021;-83
2022/12/13 10:26:38;;;;;;;21.38;11.68;;;153.90;2150.40;;;;;;5020342;28;20022;-86
2022/12/13 10:29:05;;;;;;;18.27;10.02;;;154.00;2150.40;;;;;;5026735;28;20013;-83
2022/12/13 10:31:47;;;;;;;18.15;9.68;;;154.20;2124.80;;;;;;5008278;28;20044;-85
2022/12/13 10:34:27;;;;;;;16.13;9.48;;;179.40;2073.60;;;;;;5005681;28;20044;-91
2022/12/13 10:36:53;;;;;;;18.40;9.95;;;179.20;1971.20;;;;;;5018147;28;20075;-84
2022/12/13 10:39:39;;;;;;;14.88;8.02;;;179.50;1996.80;;;;;;5011761;28;20026;-86
2022/12/13 10:42:32;;;;;;;17.63;9.57;;;179.80;1945.60;;;;;;5002190;28;20054;-83
2022/12/13 10:45:13;;;;;;;21.98;10.50;;;180.00;1894.40;;;;;;5002717;28;20053;-85
2022/12/13 10:47:43;;;;;;;18.23;10.20;;;179.80;1894.40;;;;;;5010202;28;20066;-80
2022/12/13 10:50:27;;;;;;;16.40;9.13;;;179.60;1894.40;;;;;;5011846;28;20069;-80
2022/12/13 10:52:54;;;;;;;18.52;9.10;;;179.30;1945.60;;;;;;5011452;28;20046;-80
2022/12/13 10:55:31;;;;;;;17.70;9.27;;;154.50;1894.40;;;;;;5027521;28;20053;-79
2022/12/13 10:58:15;;;;;;;13.15;6.47;;;179.20;1920.00;;;;;;5010423;28;20025;-75
2022/12/13 11:00:44;;;;;;;21.10;10.02;;;154.50;1945.60;;;;;;5004858;28;20068;-79
2022/12/13 11:03:26;;;;;;;20.65;10.88;;;179.20;1945.60;;;;;;5022942;28;20030;-77
2022/12/13 11:06:03;;;;;;;20.45;11.48;;;179.40;1945.60;;;;;;5014773;28;20026;-79
2022/12/13 11:08:30;;;;;;;23.15;12.50;;;179.30;1996.80;;;;;;5014395;28;20060;-75
2022/12/13 11:11:00;;;;;;;;;;;154.50;2022.40;;;;;;5034699;28;20041;-78
2022/12/13 11:13:40;;;;;;;30.77;14.05;;;154.50;1996.80;;;;;;5018274;28;19947;-78
2022/12/13 11:16:39;;;;;;;28.13;16.13;;;179.20;2099.20;;;;;;5018410;28;20096;-78
2022/12/13 11:19:18;;;;;;;35.70;16.60;;;179.40;2073.60;;;;;;5015288;28;20022;-78
2022/12/13 11:21:48;;;;;;;24.98;13.15;;;179.20;2048.00;;;;;;5010498;28;20125;-78
2022/12/13 11:24:35;;;;;;;26.90;14.63;;;154.50;2048.00;;;;;;5005744;28;20421;-78
2022/12/13 11:27:29;;;;;;;25.75;14.15;;;154.40;2022.40;;;;;;5022270;28;20057;-78
2022/12/13 11:29:57;;;;;;;26.17;15.55;;;154.50;2073.60;;;;;;5035934;28;20014;-78
2022/12/13 11:32:38;;;;;;;30.85;16.73;;;154.10;2124.80;;;;;;5015752;28;20053;-78
2022/12/13 11:35:43;;;;;;;31.35;16.48;;;154.00;2176.00;;;;;;5023206;28;20093;-78
2022/12/13 11:38:30;;;;;;;34.10;16.27;;;153.70;2201.60;;;;;;4938760;29;20526;-78
2022/12/13 11:41:09;;;;;;;27.52;14.55;;;153.70;2176.00;;;;;;4950023;28;20484;-78
2022/12/13 11:43:50;;;;;;;36.33;16.65;;;128.50;2252.80;;;;;;4946632;28;20519;-78
2022/12/13 11:46:28;;;;;;;31.75;16.70;;;128.40;2252.80;;;;;;4953853;28;20042;-78
2022/12/13 11:48:59;;;;;;;37.10;16.42;;;128.20;2252.80;;;;;;4954582;28;20102;-78
2022/12/13 11:51:37;;;;;;;31.95;14.88;;;128.70;2252.80;;;;;;4946279;28;20050;-78
2022/12/13 11:54:12;;;;;;;29.95;16.33;;;128.60;2252.80;;;;;;4948253;28;20051;-79
2022/12/13 11:56:42;;;;;;;33.03;17.42;;;128.60;2252.80;;;;;;4951406;28;20075;-77
2022/12/13 11:59:34;;;;;;;36.47;15.52;;;128.70;2252.80;;;;;;4936682;29;20042;-79
2022/12/13 12:02:15;;;;;;;31.67;14.80;;;128.60;2252.80;;;;;;4951067;28;20071;-79
2022/12/13 12:04:52;;;;;;;40.40;16.42;;;128.30;2252.80;;;;;;4939447;29;20036;-80
2022/12/13 12:07:29;;;;;;;29.80;15.48;;;128.20;2252.80;;;;;;4939214;29;20042;-80
2022/12/13 12:10:06;;;;;;;32.08;17.42;;;128.20;2252.80;;;;;;4937055;29;20035;-81
2022/12/13 12:12:33;;;;;;;;;;;103.20;2227.20;;;;;;4936723;29;20039;-79
2022/12/13 12:15:25;;;;;;;26.77;12.75;;;103.00;2227.20;;;;;;4963515;28;19909;-79
2022/12/13 12:17:51;;;;;;;31.52;14.70;;;103.00;2227.20;;;;;;5015199;28;20491;-79
2022/12/13 12:20:21;;;;;;;;;;;102.90;2227.20;;;;;;5018331;28;20076;-80
2022/12/13 12:23:02;;;;;;;31.95;16.70;;;102.90;2227.20;;;;;;5015930;28;20020;-80
2022/12/13 12:26:16;;;;;;;35.22;17.77;;;102.90;2227.20;;;;;;5019690;28;20029;-80
2022/12/13 12:28:41;;;;;;;34.17;17.60;;;103.00;2227.20;;;;;;4925516;29;20069;-78
2022/12/13 12:31:12;;;;;;;;;;;102.80;2227.20;;;;;;4955525;28;20463;-79
2022/12/13 12:33:53;;;;;;;32.58;17.90;;;102.80;2227.20;;;;;;4938307;29;19910;-79
2022/12/13 12:36:21;;;;;;;34.63;16.13;;;102.80;2227.20;;;;;;4935700;29;20110;-78
2022/12/13 12:39:08;;;;;;;31.90;16.90;;;102.90;2227.20;;;;;;4920453;29;20437;-79
2022/12/13 12:42:04;;;;;;;26.42;13.30;;;103.00;2227.20;;;;;;4954952;28;20108;-79
2022/12/13 12:44:48;;;;;;;32.22;16.38;;;103.00;2227.20;;;;;;4954729;28;20139;-80
2022/12/13 12:47:43;;;;;;;35.80;16.83;;;103.00;2227.20;;;;;;4954569;28;20035;-80
2022/12/13 12:50:23;;;;;;;28.48;12.93;;;103.00;2227.20;;;;;;4872226;29;20037;-79
2022/12/13 12:53:06;;;;;;;30.15;15.13;;;102.90;2227.20;;;;;;4863056;29;20048;-80